Terminal Aerodrome Forecast
Issued by NWS

Home | Current Version | Previous Version | Text Only | Print | Product List | Glossary On
Versions: 1 2 3 4 5 6 7 8 9 10 11 12 13 14 15 16 17 18 19 20 21 22 23 24 25 26 27
000
FTUS44 KCRP 032300
TAFALI
TAF
KALI 032332Z 0400/0424 15006KT P6SM OVC007
      TEMPO 0400/0403 5SM BR SCT007 BKN012
     FM040300 16008KT 3SM BR BKN005
     FM040600 16008KT 1/2SM FG OVC002
     FM041600 16012KT 4SM BR OVC009
     FM041800 18014KT P6SM BKN018
     FM042000 16015KT P6SM SCT025 SCT150=

USA.gov is the U.S. government's official web portal to all federal, state and local government web resources and services.